sensor_id;sensor_type;location;lat;lon;timestamp;pressure;altitude;pressure_sealevel;temperature;humidity
13011;BME280;6786;57.632;11.962;2023-04-02T00:01:25;101422.50;;;17.41;34.31
13011;BME280;6786;57.632;11.962;2023-04-02T00:04:15;101510.63;;;17.93;34.08
13011;BME280;6786;57.632;11.962;2023-04-02T00:06:52;101518.97;;;17.88;34.36
13011;BME280;6786;57.632;11.962;2023-04-02T00:09:35;101598.31;;;18.38;34.15
13011;BME280;6786;57.632;11.962;2023-04-02T00:12:13;101472.66;;;17.50;34.30
13011;BME280;6786;57.632;11.962;2023-04-02T00:14:49;101604.63;;;18.37;34.19
13011;BME280;6786;57.632;11.962;2023-04-02T00:17:22;101610.00;;;18.37;34.15
13011;BME280;6786;57.632;11.962;2023-04-02T00:19:57;101616.28;;;18.36;34.33
13011;BME280;6786;57.632;11.962;2023-04-02T00:22:30;101628.72;;;18.37;34.35
13011;BME280;6786;57.632;11.962;2023-04-02T00:25:09;101620.78;;;18.35;34.32
13011;BME280;6786;57.632;11.962;2023-04-02T00:27:39;101445.50;;;17.18;34.28
13011;BME280;6786;57.632;11.962;2023-04-02T00:30:11;101449.22;;;17.28;34.34
13011;BME280;6786;57.632;11.962;2023-04-02T00:32:41;101625.47;;;18.32;34.25
13011;BME280;6786;57.632;11.962;2023-04-02T00:35:12;101641.31;;;18.35;34.35
13011;BME280;6786;57.632;11.962;2023-04-02T00:37:48;101647.53;;;18.35;34.40
13011;BME280;6786;57.632;11.962;2023-04-02T00:40:21;101643.25;;;18.33;34.32
13011;BME280;6786;57.632;11.962;2023-04-02T00:42:58;101635.97;;;18.35;34.36
13011;BME280;6786;57.632;11.962;2023-04-02T00:45:31;101643.06;;;18.36;34.26
13011;BME280;6786;57.632;11.962;2023-04-02T00:48:15;101624.41;;;18.22;34.18
13011;BME280;6786;57.632;11.962;2023-04-02T00:50:52;101451.97;;;17.14;34.32
13011;BME280;6786;57.632;11.962;2023-04-02T00:53:24;101555.97;;;17.82;34.33
13011;BME280;6786;57.632;11.962;2023-04-02T00:55:56;101580.56;;;17.87;34.23
13011;BME280;6786;57.632;11.962;2023-04-02T00:58:28;101457.31;;;17.14;34.28
13011;BME280;6786;57.632;11.962;2023-04-02T01:01:00;101664.47;;;18.36;34.25
13011;BME280;6786;57.632;11.962;2023-04-02T01:03:31;101656.09;;;18.28;34.37
13011;BME280;6786;57.632;11.962;2023-04-02T01:06:05;101632.16;;;18.14;34.23
13011;BME280;6786;57.632;11.962;2023-04-02T01:09:00;101667.03;;;18.25;33.98
13011;BME280;6786;57.632;11.962;2023-04-02T01:11:43;101645.63;;;18.12;34.08
13011;BME280;6786;57.632;11.962;2023-04-02T01:14:22;101682.44;;;18.34;34.15
13011;BME280;6786;57.632;11.962;2023-04-02T01:17:03;101679.00;;;18.32;34.17
13011;BME280;6786;57.632;11.962;2023-04-02T01:19:57;101587.59;;;17.75;34.14
13011;BME280;6786;57.632;11.962;2023-04-02T01:22:36;101684.34;;;18.32;34.19
13011;BME280;6786;57.632;11.962;2023-04-02T01:25:19;101662.97;;;18.19;34.19
13011;BME280;6786;57.632;11.962;2023-04-02T01:27:55;101694.84;;;18.35;34.33
13011;BME280;6786;57.632;11.962;2023-04-02T01:30:35;101675.38;;;18.20;33.86
13011;BME280;6786;57.632;11.962;2023-04-02T01:33:06;101705.56;;;18.35;34.12
13011;BME280;6786;57.632;11.962;2023-04-02T01:35:37;101700.19;;;18.35;34.15
13011;BME280;6786;57.632;11.962;2023-04-02T01:38:10;101718.00;;;18.36;34.12
13011;BME280;6786;57.632;11.962;2023-04-02T01:40:47;101718.00;;;18.36;34.12
13011;BME280;6786;57.632;11.962;2023-04-02T01:43:23;101676.88;;;18.12;34.35
13011;BME280;6786;57.632;11.962;2023-04-02T01:45:59;101718.53;;;18.28;34.22
13011;BME280;6786;57.632;11.962;2023-04-02T01:48:33;101719.25;;;18.30;34.23
13011;BME280;6786;57.632;11.962;2023-04-02T01:51:06;101732.31;;;18.35;34.19
13011;BME280;6786;57.632;11.962;2023-04-02T01:53:36;101741.22;;;18.35;34.25
13011;BME280;6786;57.632;11.962;2023-04-02T01:56:05;101746.50;;;18.37;34.18
13011;BME280;6786;57.632;11.962;2023-04-02T01:58:33;101650.31;;;17.84;34.16
13011;BME280;6786;57.632;11.962;2023-04-02T02:01:10;101736.66;;;18.37;34.14
13011;BME280;6786;57.632;11.962;2023-04-02T02:03:43;101735.78;;;18.37;34.27
13011;BME280;6786;57.632;11.962;2023-04-02T02:06:14;101684.75;;;18.01;34.34
13011;BME280;6786;57.632;11.962;2023-04-02T02:08:47;101742.06;;;18.36;34.23
13011;BME280;6786;57.632;11.962;2023-04-02T02:11:20;101739.41;;;18.36;34.38
13011;BME280;6786;57.632;11.962;2023-04-02T02:13:54;101748.38;;;18.35;34.25
13011;BME280;6786;57.632;11.962;2023-04-02T02:16:26;101755.47;;;18.36;34.20
13011;BME280;6786;57.632;11.962;2023-04-02T02:18:58;101666.78;;;17.78;34.30
13011;BME280;6786;57.632;11.962;2023-04-02T02:21:35;101750.75;;;18.27;34.06
13011;BME280;6786;57.632;11.962;2023-04-02T02:24:17;101779.56;;;18.36;34.11
13011;BME280;6786;57.632;11.962;2023-04-02T02:26:51;101653.25;;;17.67;34.10
13011;BME280;6786;57.632;11.962;2023-04-02T02:29:23;101776.00;;;18.35;34.20
13011;BME280;6786;57.632;11.962;2023-04-02T02:31:57;101771.53;;;18.36;34.09
13011;BME280;6786;57.632;11.962;2023-04-02T02:34:33;101788.41;;;18.36;34.38
13011;BME280;6786;57.632;11.962;2023-04-02T02:37:07;101782.22;;;18.36;34.26
13011;BME280;6786;57.632;11.962;2023-04-02T02:39:42;101787.59;;;18.36;34.14
13011;BME280;6786;57.632;11.962;2023-04-02T02:42:15;101620.41;;;17.25;34.39
13011;BME280;6786;57.632;11.962;2023-04-02T02:44:46;101794.66;;;18.37;34.18
13011;BME280;6786;57.632;11.962;2023-04-02T02:47:22;101779.00;;;18.31;33.99
13011;BME280;6786;57.632;11.962;2023-04-02T02:49:54;101782.66;;;18.30;34.16
13011;BME280;6786;57.632;11.962;2023-04-02T02:52:26;101796.53;;;18.35;34.08
13011;BME280;6786;57.632;11.962;2023-04-02T02:54:57;101802.88;;;18.34;34.29
13011;BME280;6786;57.632;11.962;2023-04-02T02:57:30;101809.94;;;18.35;34.11
13011;BME280;6786;57.632;11.962;2023-04-02T03:00:01;101803.50;;;18.25;34.22
13011;BME280;6786;57.632;11.962;2023-04-02T03:02:37;101720.03;;;17.81;34.35
13011;BME280;6786;57.632;11.962;2023-04-02T03:05:09;101790.53;;;18.19;34.04
13011;BME280;6786;57.632;11.962;2023-04-02T03:07:43;101821.50;;;18.35;34.18
13011;BME280;6786;57.632;11.962;2023-04-02T03:10:15;101824.19;;;18.35;34.19
13011;BME280;6786;57.632;11.962;2023-04-02T03:12:51;101825.88;;;18.36;34.20
13011;BME280;6786;57.632;11.962;2023-04-02T03:15:26;101729.97;;;17.79;34.09
13011;BME280;6786;57.632;11.962;2023-04-02T03:18:03;101831.16;;;18.38;34.23
13011;BME280;6786;57.632;11.962;2023-04-02T03:20:35;101830.41;;;18.36;34.12
13011;BME280;6786;57.632;11.962;2023-04-02T03:23:14;101836.59;;;18.36;34.10
13011;BME280;6786;57.632;11.962;2023-04-02T03:25:50;101839.38;;;18.35;34.16
13011;BME280;6786;57.632;11.962;2023-04-02T03:28:24;101754.72;;;17.82;33.98
13011;BME280;6786;57.632;11.962;2023-04-02T03:30:58;101643.00;;;17.07;34.16
13011;BME280;6786;57.632;11.962;2023-04-02T03:33:32;101852.84;;;18.33;34.03
13011;BME280;6786;57.632;11.962;2023-04-02T03:36:11;101853.94;;;18.31;34.01
13011;BME280;6786;57.632;11.962;2023-04-02T03:38:49;101862.53;;;18.36;34.14
13011;BME280;6786;57.632;11.962;2023-04-02T03:41:31;101858.53;;;18.29;33.87
13011;BME280;6786;57.632;11.962;2023-04-02T03:44:05;101791.28;;;17.82;33.92
13011;BME280;6786;57.632;11.962;2023-04-02T03:46:40;101877.72;;;18.35;34.12
13011;BME280;6786;57.632;11.962;2023-04-02T03:49:17;101874.28;;;18.33;34.03
13011;BME280;6786;57.632;11.962;2023-04-02T03:51:51;101887.56;;;18.35;34.04
13011;BME280;6786;57.632;11.962;2023-04-02T03:54:22;101883.06;;;18.35;34.07
13011;BME280;6786;57.632;11.962;2023-04-02T03:56:52;101884.97;;;18.33;34.25
13011;BME280;6786;57.632;11.962;2023-04-02T03:59:26;101894.19;;;18.29;34.19
13011;BME280;6786;57.632;11.962;2023-04-02T04:02:34;101895.69;;;18.33;33.88
13011;BME280;6786;57.632;11.962;2023-04-02T04:05:18;101799.16;;;17.71;33.87
13011;BME280;6786;57.632;11.962;2023-04-02T04:07:50;101898.47;;;18.32;34.02
13011;BME280;6786;57.632;11.962;2023-04-02T04:10:25;101862.66;;;18.08;34.20
13011;BME280;6786;57.632;11.962;2023-04-02T04:13:01;101903.81;;;18.32;34.10
13011;BME280;6786;57.632;11.962;2023-04-02T04:15:34;101896.19;;;18.26;34.18
13011;BME280;6786;57.632;11.962;2023-04-02T04:18:10;101741.94;;;17.32;34.06
13011;BME280;6786;57.632;11.962;2023-04-02T04:20:50;101922.44;;;18.33;34.15
13011;BME280;6786;57.632;11.962;2023-04-02T04:23:28;101926.88;;;18.34;34.11
13011;BME280;6786;57.632;11.962;2023-04-02T04:25:59;101930.38;;;18.35;34.07
13011;BME280;6786;57.632;11.962;2023-04-02T04:28:37;101926.00;;;18.34;34.13
13011;BME280;6786;57.632;11.962;2023-04-02T04:31:16;101937.66;;;18.33;33.97
13011;BME280;6786;57.632;11.962;2023-04-02T04:33:54;101927.38;;;18.27;34.07
13011;BME280;6786;57.632;11.962;2023-04-02T04:36:36;101951.78;;;18.35;34.10
13011;BME280;6786;57.632;11.962;2023-04-02T04:39:24;101942.44;;;18.28;34.07
13011;BME280;6786;57.632;11.962;2023-04-02T04:41:57;101956.41;;;18.33;34.04
13011;BME280;6786;57.632;11.962;2023-04-02T04:44:39;101958.22;;;18.32;33.88
13011;BME280;6786;57.632;11.962;2023-04-02T04:47:16;101874.28;;;17.80;34.01
13011;BME280;6786;57.632;11.962;2023-04-02T04:49:48;101964.44;;;18.33;34.17
13011;BME280;6786;57.632;11.962;2023-04-02T04:52:24;101953.16;;;18.28;34.00
13011;BME280;6786;57.632;11.962;2023-04-02T04:54:53;101961.19;;;18.28;34.09
13011;BME280;6786;57.632;11.962;2023-04-02T04:57:28;101872.78;;;17.76;34.00
13011;BME280;6786;57.632;11.962;2023-04-02T05:00:04;101980.28;;;18.36;34.12
13011;BME280;6786;57.632;11.962;2023-04-02T05:02:43;101900.63;;;17.86;33.98
13011;BME280;6786;57.632;11.962;2023-04-02T05:05:17;101987.44;;;18.35;33.99
13011;BME280;6786;57.632;11.962;2023-04-02T05:07:55;101796.56;;;17.14;34.06
13011;BME280;6786;57.632;11.962;2023-04-02T05:10:32;102001.72;;;18.36;33.95
13011;BME280;6786;57.632;11.962;2023-04-02T05:13:09;101850.38;;;17.50;33.97
13011;BME280;6786;57.632;11.962;2023-04-02T05:15:49;102012.41;;;18.36;34.00
13011;BME280;6786;57.632;11.962;2023-04-02T05:18:26;102011.53;;;18.35;34.07
13011;BME280;6786;57.632;11.962;2023-04-02T05:21:02;102003.59;;;18.34;33.99
13011;BME280;6786;57.632;11.962;2023-04-02T05:23:39;102008.97;;;18.34;33.99
13011;BME280;6786;57.632;11.962;2023-04-02T05:26:18;102018.69;;;18.35;33.98
13011;BME280;6786;57.632;11.962;2023-04-02T05:28:54;102007.66;;;18.27;33.97
13011;BME280;6786;57.632;11.962;2023-04-02T05:31:25;101916.81;;;17.71;33.89
13011;BME280;6786;57.632;11.962;2023-04-02T05:33:55;102032.09;;;18.35;33.99
13011;BME280;6786;57.632;11.962;2023-04-02T05:36:26;102032.09;;;18.35;33.89
13011;BME280;6786;57.632;11.962;2023-04-02T05:39:01;102048.16;;;18.35;33.93
13011;BME280;6786;57.632;11.962;2023-04-02T05:41:36;102044.16;;;18.28;33.79
13011;BME280;6786;57.632;11.962;2023-04-02T05:44:09;102056.28;;;18.33;33.83
13011;BME280;6786;57.632;11.962;2023-04-02T05:46:45;102064.22;;;18.35;33.91
13011;BME280;6786;57.632;11.962;2023-04-02T05:49:19;102068.72;;;18.34;33.86
13011;BME280;6786;57.632;11.962;2023-04-02T05:51:52;102069.56;;;18.35;33.94
13011;BME280;6786;57.632;11.962;2023-04-02T05:54:33;102080.28;;;18.35;33.85
13011;BME280;6786;57.632;11.962;2023-04-02T05:57:12;102090.13;;;18.34;33.91
13011;BME280;6786;57.632;11.962;2023-04-02T05:59:50;102083.91;;;18.34;33.77
13011;BME280;6786;57.632;11.962;2023-04-02T06:02:28;102084.78;;;18.34;33.79
13011;BME280;6786;57.632;11.962;2023-04-02T06:05:01;101986.97;;;17.74;33.81
13011;BME280;6786;57.632;11.962;2023-04-02T06:07:39;102093.75;;;18.33;33.84
13011;BME280;6786;57.632;11.962;2023-04-02T06:10:15;102000.84;;;17.81;33.85
13011;BME280;6786;57.632;11.962;2023-04-02T06:12:50;102092.91;;;18.33;33.88
13011;BME280;6786;57.632;11.962;2023-04-02T06:15:22;102099.88;;;18.35;33.85
13011;BME280;6786;57.632;11.962;2023-04-02T06:17:58;102107.91;;;18.35;33.91
13011;BME280;6786;57.632;11.962;2023-04-02T06:20:27;101999.47;;;17.74;33.89
13011;BME280;6786;57.632;11.962;2023-04-02T06:23:02;102111.53;;;18.34;33.85
13011;BME280;6786;57.632;11.962;2023-04-02T06:25:37;102117.75;;;18.35;33.85
13011;BME280;6786;57.632;11.962;2023-04-02T06:28:12;102123.09;;;18.35;33.80
13011;BME280;6786;57.632;11.962;2023-04-02T06:30:42;102123.09;;;18.35;33.79
13011;BME280;6786;57.632;11.962;2023-04-02T06:33:12;102031.09;;;17.81;33.87
13011;BME280;6786;57.632;11.962;2023-04-02T06:35:42;102039.03;;;17.83;33.84
13011;BME280;6786;57.632;11.962;2023-04-02T06:38:16;102130.19;;;18.36;33.82
13011;BME280;6786;57.632;11.962;2023-04-02T06:40:51;102124.84;;;18.36;33.95
13011;BME280;6786;57.632;11.962;2023-04-02T06:43:34;102123.66;;;18.26;33.70
13011;BME280;6786;57.632;11.962;2023-04-02T06:46:09;102126.56;;;18.37;33.86
13011;BME280;6786;57.632;11.962;2023-04-02T06:48:41;102088.31;;;18.07;33.78
13011;BME280;6786;57.632;11.962;2023-04-02T06:51:13;102148.00;;;18.37;33.80
13011;BME280;6786;57.632;11.962;2023-04-02T06:53:46;102149.69;;;18.38;33.96
13011;BME280;6786;57.632;11.962;2023-04-02T06:56:25;102113.56;;;18.17;33.68
13011;BME280;6786;57.632;11.962;2023-04-02T06:58:58;101997.31;;;17.36;33.73
13011;BME280;6786;57.632;11.962;2023-04-02T07:01:28;102156.97;;;18.36;33.74
13011;BME280;6786;57.632;11.962;2023-04-02T07:03:59;102162.31;;;18.36;33.80
13011;BME280;6786;57.632;11.962;2023-04-02T07:06:27;102162.31;;;18.36;33.80
13011;BME280;6786;57.632;11.962;2023-04-02T07:08:56;102073.41;;;17.75;33.93
13011;BME280;6786;57.632;11.962;2023-04-02T07:11:25;102166.72;;;18.37;33.89
13011;BME280;6786;57.632;11.962;2023-04-02T07:13:53;102171.13;;;18.38;33.84
13011;BME280;6786;57.632;11.962;2023-04-02T07:16:23;102165.75;;;18.38;33.81
13011;BME280;6786;57.632;11.962;2023-04-02T07:18:53;102182.69;;;18.38;33.53
13011;BME280;6786;57.632;11.962;2023-04-02T07:21:21;102162.88;;;18.27;33.81
13011;BME280;6786;57.632;11.962;2023-04-02T07:23:53;102166.31;;;18.29;33.64
13011;BME280;6786;57.632;11.962;2023-04-02T07:26:24;102184.56;;;18.36;33.72
13011;BME280;6786;57.632;11.962;2023-04-02T07:28:54;102189.06;;;18.36;33.90
13011;BME280;6786;57.632;11.962;2023-04-02T07:31:24;102197.94;;;18.36;33.90
13011;BME280;6786;57.632;11.962;2023-04-02T07:33:54;102188.22;;;18.35;33.68
13011;BME280;6786;57.632;11.962;2023-04-02T07:36:24;102184.66;;;18.21;33.80
13011;BME280;6786;57.632;11.962;2023-04-02T07:38:53;102134.56;;;17.95;33.74
13011;BME280;6786;57.632;11.962;2023-04-02T07:41:21;102009.16;;;17.18;33.79
13011;BME280;6786;57.632;11.962;2023-04-02T07:43:50;102208.84;;;18.33;33.71
13011;BME280;6786;57.632;11.962;2023-04-02T07:46:20;102207.03;;;18.34;33.76
13011;BME280;6786;57.632;11.962;2023-04-02T07:48:48;102215.84;;;18.36;33.80
13011;BME280;6786;57.632;11.962;2023-04-02T07:51:18;102212.31;;;18.35;33.74
13011;BME280;6786;57.632;11.962;2023-04-02T07:53:47;102208.75;;;18.35;33.64
13011;BME280;6786;57.632;11.962;2023-04-02T07:56:18;102067.25;;;17.44;33.73
13011;BME280;6786;57.632;11.962;2023-04-02T07:58:46;102113.53;;;17.75;33.82
13011;BME280;6786;57.632;11.962;2023-04-02T08:01:17;102222.03;;;18.36;33.54
13011;BME280;6786;57.632;11.962;2023-04-02T08:03:48;102231.91;;;18.36;33.65
13011;BME280;6786;57.632;11.962;2023-04-02T08:06:20;102235.72;;;18.32;33.65
13011;BME280;6786;57.632;11.962;2023-04-02T08:08:48;102230.16;;;18.35;33.66
13011;BME280;6786;57.632;11.962;2023-04-02T08:11:16;102246.22;;;18.35;33.67
13011;BME280;6786;57.632;11.962;2023-04-02T08:13:45;102246.22;;;18.35;33.60
13011;BME280;6786;57.632;11.962;2023-04-02T08:16:14;102078.28;;;17.38;33.65
13011;BME280;6786;57.632;11.962;2023-04-02T08:18:42;102245.38;;;18.34;33.67
13011;BME280;6786;57.632;11.962;2023-04-02T08:21:14;102060.84;;;17.17;33.55
13011;BME280;6786;57.632;11.962;2023-04-02T08:23:42;102247.09;;;18.35;33.46
13011;BME280;6786;57.632;11.962;2023-04-02T08:26:16;102243.66;;;18.33;33.61
13011;BME280;6786;57.632;11.962;2023-04-02T08:28:44;102261.34;;;18.36;33.62
13011;BME280;6786;57.632;11.962;2023-04-02T08:31:13;102256.94;;;18.35;33.64
13011;BME280;6786;57.632;11.962;2023-04-02T08:33:41;102264.03;;;18.36;33.64
13011;BME280;6786;57.632;11.962;2023-04-02T08:36:14;102269.38;;;18.36;33.50
13011;BME280;6786;57.632;11.962;2023-04-02T08:38:44;102269.38;;;18.36;33.66
13011;BME280;6786;57.632;11.962;2023-04-02T08:41:19;102273.00;;;18.35;33.45
13011;BME280;6786;57.632;11.962;2023-04-02T08:44:05;102160.41;;;17.66;33.32
13011;BME280;6786;57.632;11.962;2023-04-02T08:46:41;102273.00;;;18.35;33.39
13011;BME280;6786;57.632;11.962;2023-04-02T08:49:14;102273.00;;;18.35;33.47
13011;BME280;6786;57.632;11.962;2023-04-02T08:51:46;102180.38;;;17.75;33.50
13011;BME280;6786;57.632;11.962;2023-04-02T08:54:19;102286.47;;;18.33;33.50
13011;BME280;6786;57.632;11.962;2023-04-02T08:56:53;102108.41;;;17.26;33.47
13011;BME280;6786;57.632;11.962;2023-04-02T08:59:30;102302.44;;;18.35;33.34
13011;BME280;6786;57.632;11.962;2023-04-02T09:02:08;102281.84;;;18.37;33.36
13011;BME280;6786;57.632;11.962;2023-04-02T09:04:41;102283.88;;;18.32;33.55
13011;BME280;6786;57.632;11.962;2023-04-02T09:07:13;102224.34;;;17.85;33.35
13011;BME280;6786;57.632;11.962;2023-04-02T09:09:46;102206.75;;;17.81;33.55
13011;BME280;6786;57.632;11.962;2023-04-02T09:12:17;102292.88;;;18.31;33.40
13011;BME280;6786;57.632;11.962;2023-04-02T09:14:57;102301.69;;;18.33;33.24
13011;BME280;6786;57.632;11.962;2023-04-02T09:17:27;102217.47;;;17.81;33.46
13011;BME280;6786;57.632;11.962;2023-04-02T09:20:14;102311.34;;;18.35;33.39
13011;BME280;6786;57.632;11.962;2023-04-02T09:22:46;102321.19;;;18.35;33.43
13011;BME280;6786;57.632;11.962;2023-04-02T09:25:19;102312.41;;;18.33;33.45
13011;BME280;6786;57.632;11.962;2023-04-02T09:27:49;102331.03;;;18.34;33.48
13011;BME280;6786;57.632;11.962;2023-04-02T09:30:28;102326.53;;;18.35;33.49
13011;BME280;6786;57.632;11.962;2023-04-02T09:33:02;102323.09;;;18.33;33.59
13011;BME280;6786;57.632;11.962;2023-04-02T09:35:34;102319.47;;;18.34;33.43
13011;BME280;6786;57.632;11.962;2023-04-02T09:38:16;102122.47;;;17.14;33.30
13011;BME280;6786;57.632;11.962;2023-04-02T09:40:48;102330.16;;;18.34;33.38
13011;BME280;6786;57.632;11.962;2023-04-02T09:43:19;102331.88;;;18.35;33.42
13011;BME280;6786;57.632;11.962;2023-04-02T09:45:58;102345.53;;;18.30;33.23
13011;BME280;6786;57.632;11.962;2023-04-02T09:48:29;102339.16;;;18.33;33.43
13011;BME280;6786;57.632;11.962;2023-04-02T09:51:17;102311.69;;;18.15;33.13
13011;BME280;6786;57.632;11.962;2023-04-02T09:53:49;102345.44;;;18.32;33.53
13011;BME280;6786;57.632;11.962;2023-04-02T09:56:19;102351.59;;;18.34;33.54
13011;BME280;6786;57.632;11.962;2023-04-02T09:59:02;102167.72;;;17.17;33.05
13011;BME280;6786;57.632;11.962;2023-04-02T10:01:32;102348.91;;;18.34;33.42
13011;BME280;6786;57.632;11.962;2023-04-02T10:04:04;102355.22;;;18.33;33.45
13011;BME280;6786;57.632;11.962;2023-04-02T10:06:33;102234.94;;;17.56;33.27
13011;BME280;6786;57.632;11.962;2023-04-02T10:09:26;102362.28;;;18.34;32.97
13011;BME280;6786;57.632;11.962;2023-04-02T10:11:56;102260.44;;;17.78;33.29
13011;BME280;6786;57.632;11.962;2023-04-02T10:14:28;102355.03;;;18.36;33.26
13011;BME280;6786;57.632;11.962;2023-04-02T10:17:02;102265.78;;;17.78;33.39
13011;BME280;6786;57.632;11.962;2023-04-02T10:19:36;102359.78;;;18.31;33.24
13011;BME280;6786;57.632;11.962;2023-04-02T10:22:11;102281.28;;;17.87;33.18
13011;BME280;6786;57.632;11.962;2023-04-02T10:24:42;102359.78;;;18.31;33.31
13011;BME280;6786;57.632;11.962;2023-04-02T10:27:16;102378.34;;;18.34;33.23
13011;BME280;6786;57.632;11.962;2023-04-02T10:29:55;102368.78;;;18.30;33.24
13011;BME280;6786;57.632;11.962;2023-04-02T10:32:31;102372.50;;;18.27;33.17
13011;BME280;6786;57.632;11.962;2023-04-02T10:35:04;102383.88;;;18.31;33.26
13011;BME280;6786;57.632;11.962;2023-04-02T10:38:04;102408.75;;;18.33;32.85
13011;BME280;6786;57.632;11.962;2023-04-02T10:40:45;102385.50;;;18.33;33.21
13011;BME280;6786;57.632;11.962;2023-04-02T10:46:19;102394.59;;;18.31;33.22
13011;BME280;6786;57.632;11.962;2023-04-02T10:49:00;102398.91;;;18.33;33.04
13011;BME280;6786;57.632;11.962;2023-04-02T10:51:38;102404.69;;;18.26;33.06
13011;BME280;6786;57.632;11.962;2023-04-02T10:54:20;102399.78;;;18.34;32.97
13011;BME280;6786;57.632;11.962;2023-04-02T10:57:03;102408.75;;;18.33;33.18
13011;BME280;6786;57.632;11.962;2023-04-02T10:59:34;102405.13;;;18.34;33.13
13011;BME280;6786;57.632;11.962;2023-04-02T11:02:22;102301.88;;;17.71;32.98
13011;BME280;6786;57.632;11.962;2023-04-02T11:04:53;102408.75;;;18.33;33.20
13011;BME280;6786;57.632;11.962;2023-04-02T11:07:27;102318.31;;;17.79;33.16
13011;BME280;6786;57.632;11.962;2023-04-02T11:09:58;102312.66;;;17.69;33.26
13011;BME280;6786;57.632;11.962;2023-04-02T11:12:36;102426.53;;;18.34;33.04
13011;BME280;6786;57.632;11.962;2023-04-02T11:15:14;102422.16;;;18.33;33.08
13011;BME280;6786;57.632;11.962;2023-04-02T11:17:43;102328.03;;;17.80;33.15
13011;BME280;6786;57.632;11.962;2023-04-02T11:20:41;102411.34;;;18.34;32.72
13011;BME280;6786;57.632;11.962;2023-04-02T11:23:11;102422.91;;;18.35;33.19
13011;BME280;6786;57.632;11.962;2023-04-02T11:25:40;102338.75;;;17.80;33.08
13011;BME280;6786;57.632;11.962;2023-04-02T11:28:23;102422.91;;;18.35;33.06
13011;BME280;6786;57.632;11.962;2023-04-02T11:30:53;102422.91;;;18.35;33.38
13011;BME280;6786;57.632;11.962;2023-04-02T11:33:31;102430.94;;;18.35;33.10
13011;BME280;6786;57.632;11.962;2023-04-02T11:39:46;102430.19;;;18.33;32.52
13011;BME280;6786;57.632;11.962;2023-04-02T11:42:25;102431.00;;;18.33;32.93
13011;BME280;6786;57.632;11.962;2023-04-02T11:44:58;102434.66;;;18.32;33.06
13011;BME280;6786;57.632;11.962;2023-04-02T11:47:28;102362.28;;;17.89;33.00
13011;BME280;6786;57.632;11.962;2023-04-02T11:50:05;102451.59;;;18.33;32.80
13011;BME280;6786;57.632;11.962;2023-04-02T11:52:49;102297.03;;;17.46;32.83
13011;BME280;6786;57.632;11.962;2023-04-02T11:55:22;102447.09;;;18.33;33.20
13011;BME280;6786;57.632;11.962;2023-04-02T11:58:18;102356.38;;;17.84;32.67
13011;BME280;6786;57.632;11.962;2023-04-02T12:04:14;102364.56;;;17.81;32.86
13011;BME280;6786;57.632;11.962;2023-04-02T12:06:56;102353.06;;;17.79;32.74
13011;BME280;6786;57.632;11.962;2023-04-02T12:09:35;102365.06;;;17.87;32.96
13011;BME280;6786;57.632;11.962;2023-04-02T12:12:22;102440.88;;;18.33;32.90
13011;BME280;6786;57.632;11.962;2023-04-02T12:14:53;102449.84;;;18.32;33.14
13011;BME280;6786;57.632;11.962;2023-04-02T12:17:30;102261.22;;;17.17;32.93
13011;BME280;6786;57.632;11.962;2023-04-02T12:20:01;102385.94;;;17.96;33.03
13011;BME280;6786;57.632;11.962;2023-04-02T12:22:35;102452.59;;;18.30;33.02
13011;BME280;6786;57.632;11.962;2023-04-02T12:25:17;102463.16;;;18.33;33.08
13011;BME280;6786;57.632;11.962;2023-04-02T12:28:02;102460.47;;;18.33;32.74
13011;BME280;6786;57.632;11.962;2023-04-02T12:30:30;102366.44;;;17.79;33.08
13011;BME280;6786;57.632;11.962;2023-04-02T12:33:16;102465.72;;;18.35;32.79
13011;BME280;6786;57.632;11.962;2023-04-02T12:35:56;102473.84;;;18.33;33.09
13011;BME280;6786;57.632;11.962;2023-04-02T12:38:25;102371.00;;;17.77;33.07
13011;BME280;6786;57.632;11.962;2023-04-02T12:40:55;102466.69;;;18.34;33.04
13011;BME280;6786;57.632;11.962;2023-04-02T12:43:29;102466.59;;;18.35;32.93
13011;BME280;6786;57.632;11.962;2023-04-02T12:45:59;102457.69;;;18.35;33.17
13011;BME280;6786;57.632;11.962;2023-04-02T12:48:31;102453.47;;;18.31;33.10
13011;BME280;6786;57.632;11.962;2023-04-02T12:51:01;102465.72;;;18.35;33.06
13011;BME280;6786;57.632;11.962;2023-04-02T12:53:33;102460.38;;;18.35;33.08
13011;BME280;6786;57.632;11.962;2023-04-02T12:56:03;102460.38;;;18.35;33.06
13011;BME280;6786;57.632;11.962;2023-04-02T12:58:34;102339.66;;;17.65;33.09
13011;BME280;6786;57.632;11.962;2023-04-02T13:01:13;102472.84;;;18.36;32.91
13011;BME280;6786;57.632;11.962;2023-04-02T13:03:43;102471.25;;;18.32;33.12
13011;BME280;6786;57.632;11.962;2023-04-02T13:06:20;102381.38;;;17.83;32.80
13011;BME280;6786;57.632;11.962;2023-04-02T13:08:50;102479.94;;;18.37;32.99
13011;BME280;6786;57.632;11.962;2023-04-02T13:11:18;102472.91;;;18.34;33.12
13011;BME280;6786;57.632;11.962;2023-04-02T13:13:48;102472.84;;;18.36;33.13
13011;BME280;6786;57.632;11.962;2023-04-02T13:16:28;102478.19;;;18.36;32.74
13011;BME280;6786;57.632;11.962;2023-04-02T13:19:21;102479.19;;;18.33;32.68
13011;BME280;6786;57.632;11.962;2023-04-02T13:21:49;102476.44;;;18.35;33.07
13011;BME280;6786;57.632;11.962;2023-04-02T13:24:19;102387.06;;;17.77;32.85
13011;BME280;6786;57.632;11.962;2023-04-02T13:26:48;102492.50;;;18.35;33.00
13011;BME280;6786;57.632;11.962;2023-04-02T13:29:23;102397.59;;;17.80;32.80
13011;BME280;6786;57.632;11.962;2023-04-02T13:31:54;102484.47;;;18.35;33.01
13011;BME280;6786;57.632;11.962;2023-04-02T13:34:25;102481.78;;;18.35;33.11
13011;BME280;6786;57.632;11.962;2023-04-02T13:36:54;102396.47;;;17.84;32.96
13011;BME280;6786;57.632;11.962;2023-04-02T13:39:23;102476.44;;;18.35;33.04